createdAt,value
2018-09-28T00:03:16.428Z,5.97
2018-09-28T00:36:51.172Z,9.00
2018-09-28T00:39:27.095Z,7.77
2018-09-28T00:42:03.189Z,10.63
2018-09-28T00:44:39.055Z,13.77
2018-09-28T00:47:15.131Z,9.83
2018-09-28T00:49:51.005Z,11.27
2018-09-28T00:52:27.727Z,12.13
2018-09-28T00:55:03.489Z,12.33
2018-09-28T00:57:39.404Z,7.47
2018-09-28T01:00:15.187Z,5.30
2018-09-28T01:02:51.036Z,6.47
2018-09-28T01:05:26.802Z,4.23
2018-09-28T01:08:02.588Z,5.90
2018-09-28T01:10:38.520Z,8.90
2018-09-28T01:13:14.455Z,10.30
2018-09-28T01:15:50.370Z,12.87
2018-09-28T01:18:26.065Z,9.30
2018-09-28T01:21:01.836Z,9.73
2018-09-28T01:23:37.672Z,12.83
2018-09-28T01:26:13.508Z,11.00
2018-09-28T01:28:49.300Z,9.07
2018-09-28T01:31:25.064Z,9.23
2018-09-28T01:34:00.895Z,11.10
2018-09-28T01:36:36.705Z,9.40
2018-09-28T01:39:12.633Z,8.97
2018-09-28T01:41:48.432Z,9.10
2018-09-28T01:44:24.257Z,12.23
2018-09-28T01:47:00.069Z,20.50
2018-09-28T01:49:35.913Z,10.53
2018-09-28T01:52:11.719Z,8.73
2018-09-28T01:54:47.581Z,7.23
2018-09-28T01:57:23.551Z,8.60
2018-09-28T01:59:59.475Z,9.20
2018-09-28T02:02:35.372Z,9.93
2018-09-28T02:05:11.391Z,9.37
2018-09-28T02:07:47.374Z,6.83
2018-09-28T02:10:23.257Z,9.97
2018-09-28T02:12:59.164Z,8.23
2018-09-28T02:15:34.873Z,8.07
2018-09-28T02:18:10.685Z,7.47
2018-09-28T02:20:46.501Z,7.40
2018-09-28T02:23:22.283Z,8.13
2018-09-28T02:25:58.096Z,14.03
2018-09-28T02:28:33.900Z,13.63
2018-09-28T02:31:10.004Z,9.23
2018-09-28T02:33:45.889Z,7.63
2018-09-28T02:36:21.793Z,5.67
2018-09-28T02:38:58.058Z,7.30
2018-09-28T02:41:33.979Z,7.73
2018-09-28T02:44:09.777Z,7.93
2018-09-28T02:46:45.587Z,12.00
2018-09-28T07:02:50.591Z,42.53
2018-09-28T07:05:26.387Z,45.00
2018-09-28T07:08:02.252Z,43.83
2018-09-28T07:10:38.113Z,33.70
2018-09-28T07:13:13.926Z,34.03
2018-09-28T07:15:51.792Z,38.17
2018-09-28T07:18:27.581Z,39.23
2018-09-28T07:21:03.825Z,22.33
2018-09-28T07:23:39.905Z,22.03
2018-09-28T07:26:15.888Z,22.50
2018-09-28T07:28:51.796Z,38.77
2018-09-28T07:31:27.729Z,24.13
2018-09-28T07:34:04.003Z,18.50
2018-09-28T07:36:40.038Z,19.20
2018-09-28T07:39:18.688Z,15.33
2018-09-28T07:41:54.680Z,26.40
2018-09-28T07:44:30.756Z,17.93
2018-09-28T07:47:07.347Z,19.80
2018-09-28T07:49:43.317Z,14.70
2018-09-28T07:52:19.283Z,14.07
2018-09-28T07:54:55.088Z,12.70
2018-09-28T07:57:30.992Z,13.73
2018-09-28T08:00:06.826Z,14.93
2018-09-28T08:02:42.755Z,14.40
2018-09-28T08:05:18.533Z,10.63
2018-09-28T08:07:54.472Z,11.47
2018-09-28T08:10:30.283Z,16.07
2018-09-28T08:13:06.254Z,13.70
2018-09-28T08:15:42.330Z,12.00
2018-09-28T08:18:19.603Z,9.40
2018-09-28T08:20:55.945Z,8.70
2018-09-28T08:23:31.977Z,8.43
2018-09-28T08:26:08.116Z,10.77
2018-09-28T08:28:44.201Z,18.30
2018-09-28T08:31:20.265Z,15.20
2018-09-28T08:35:20.221Z,4.40
2018-09-28T08:37:55.973Z,3.13
2018-09-28T08:40:31.824Z,2.93
2018-09-28T08:43:07.669Z,3.00
2018-09-28T08:45:43.494Z,2.63
2018-09-28T08:48:19.442Z,3.00
2018-09-28T08:50:55.392Z,5.43
2018-09-28T08:53:31.352Z,5.07
2018-09-28T08:56:09.137Z,3.00
2018-09-28T08:58:45.792Z,1.70
2018-09-28T09:01:22.288Z,2.73
2018-09-28T09:03:58.102Z,3.87
2018-09-28T09:06:33.982Z,8.83
2018-09-28T09:09:12.029Z,3.20
2018-09-28T09:11:48.018Z,3.47
2018-09-28T09:14:23.811Z,3.57
2018-09-28T09:16:59.653Z,2.53
2018-09-28T09:19:35.467Z,5.67
2018-09-28T09:22:11.403Z,3.10
2018-09-28T09:24:47.389Z,4.00
2018-09-28T09:27:23.351Z,4.87
2018-09-28T09:29:59.192Z,3.47
2018-09-28T09:32:35.172Z,4.10
2018-09-28T09:35:11.031Z,3.87
2018-09-28T09:37:47.011Z,6.20
2018-09-28T09:40:22.816Z,3.07
2018-09-28T09:42:58.735Z,2.57
2018-09-28T09:45:34.517Z,2.47
2018-09-28T09:48:10.468Z,4.60
2018-09-28T09:50:46.264Z,2.27
2018-09-28T09:53:22.161Z,3.23
2018-09-28T09:55:58.095Z,3.00
2018-09-28T09:58:33.919Z,2.90
2018-09-28T10:01:14.174Z,2.33
2018-09-28T10:03:51.740Z,4.00
2018-09-28T10:06:27.576Z,4.27
2018-09-28T10:09:04.317Z,5.10
2018-09-28T10:11:40.101Z,2.10
2018-09-28T10:14:15.936Z,2.17
2018-09-28T10:16:51.754Z,1.90
2018-09-28T10:19:27.698Z,2.77
2018-09-28T10:22:03.610Z,3.13
2018-09-28T10:24:39.603Z,2.03
2018-09-28T10:27:15.524Z,2.87
2018-09-28T10:29:51.535Z,2.77
2018-09-28T10:32:27.309Z,5.73
2018-09-28T10:35:03.161Z,7.60
2018-09-28T10:37:38.946Z,1.40
2018-09-28T10:40:14.963Z,2.20
2018-09-28T10:42:50.889Z,2.53
2018-09-28T10:45:26.803Z,2.10
2018-09-28T10:48:02.854Z,5.10
2018-09-28T10:50:38.708Z,1.30
2018-09-28T10:53:14.525Z,3.23
2018-09-28T10:55:50.440Z,1.50
2018-09-28T10:58:26.423Z,1.87
2018-09-28T11:01:02.300Z,5.20
2018-09-28T11:03:38.181Z,1.63
2018-09-28T11:06:14.328Z,2.07
2018-09-28T11:08:50.148Z,1.63
2018-09-28T11:11:26.322Z,2.20
2018-09-28T11:14:02.121Z,2.50
2018-09-28T11:16:37.973Z,1.73
2018-09-28T11:19:13.921Z,2.57
2018-09-28T11:21:49.808Z,6.27
2018-09-28T11:24:26.657Z,2.07
2018-09-28T11:27:02.533Z,2.03
2018-09-28T11:29:38.768Z,1.90
2018-09-28T11:32:14.624Z,3.60
2018-09-28T11:34:50.414Z,3.77
2018-09-28T11:37:26.401Z,1.73
2018-09-28T11:40:02.215Z,4.20
2018-09-28T11:42:38.419Z,3.57
2018-09-28T11:45:14.360Z,1.73
2018-09-28T11:47:50.466Z,1.77
2018-09-28T11:50:26.208Z,2.40
2018-09-28T11:53:02.010Z,1.73
2018-09-28T11:55:37.957Z,2.73
2018-09-28T11:58:13.854Z,2.03
2018-09-28T12:00:50.012Z,3.97
2018-09-28T12:03:25.992Z,2.90
2018-09-28T12:06:02.108Z,2.10
2018-09-28T12:08:37.976Z,5.47
2018-09-28T12:11:13.722Z,7.50
2018-09-28T12:13:49.747Z,4.50
2018-09-28T12:16:25.562Z,5.13
2018-09-28T12:19:01.368Z,3.47
2018-09-28T12:21:37.592Z,3.30
2018-09-28T12:24:13.770Z,4.03
2018-09-28T12:26:50.048Z,4.57
2018-09-28T12:29:25.872Z,3.33
2018-09-28T12:32:01.804Z,4.77
2018-09-28T12:34:37.752Z,2.73
2018-09-28T12:37:13.542Z,1.60
2018-09-28T12:39:49.436Z,4.10
2018-09-28T12:42:25.811Z,3.83
2018-09-28T12:45:02.080Z,2.63
2018-09-28T12:47:38.024Z,3.40
2018-09-28T12:50:13.945Z,1.90
2018-09-28T12:52:50.088Z,4.13
2018-09-28T12:55:26.059Z,2.63
2018-09-28T12:58:02.016Z,1.93
2018-09-28T13:00:38.041Z,2.53
2018-09-28T13:03:14.126Z,6.33
2018-09-28T13:05:45.152Z,3.20
2018-09-28T13:08:16.024Z,4.00
2018-09-28T13:10:52.107Z,2.30
2018-09-28T13:13:28.073Z,2.57
2018-09-28T13:16:03.997Z,2.13
2018-09-28T13:18:41.595Z,3.43
2018-09-28T13:21:17.976Z,3.23
2018-09-28T13:23:54.165Z,5.00
2018-09-28T13:26:30.661Z,2.50
2018-09-28T13:29:06.859Z,6.73
2018-09-28T13:31:43.054Z,4.77
2018-09-28T13:34:18.814Z,2.33
2018-09-28T13:36:55.053Z,2.60
2018-09-28T13:39:30.880Z,2.63
2018-09-28T13:42:06.742Z,2.10
2018-09-28T13:44:42.599Z,3.47
2018-09-28T13:47:18.801Z,5.27
2018-09-28T13:49:54.619Z,3.37
2018-09-28T13:52:30.387Z,5.77
2018-09-28T13:55:07.115Z,5.17
2018-09-28T13:57:42.930Z,3.13
2018-09-28T14:00:18.764Z,2.73
2018-09-28T14:02:55.043Z,7.67
2018-09-28T14:05:30.975Z,3.07
2018-09-28T14:08:06.830Z,5.50
2018-09-28T14:10:42.935Z,5.67
2018-09-28T14:13:18.956Z,6.20
2018-09-28T14:15:54.868Z,2.70
2018-09-28T14:18:30.774Z,4.17
2018-09-28T14:21:07.033Z,6.37
2018-09-28T14:23:42.997Z,6.13
2018-09-28T14:26:18.858Z,3.63
2018-09-28T14:28:55.072Z,6.60
2018-09-28T14:31:31.126Z,6.17
2018-09-28T14:34:07.577Z,4.77
2018-09-28T14:36:43.589Z,6.10
2018-09-28T14:39:19.788Z,4.73
2018-09-28T14:41:55.563Z,10.90
2018-09-28T14:44:31.440Z,19.67
2018-09-28T14:47:07.694Z,14.40
2018-09-28T14:49:43.939Z,8.13
2018-09-28T14:52:19.712Z,6.40
2018-09-28T14:54:55.768Z,9.47
2018-09-28T14:57:31.873Z,9.00
2018-09-28T15:00:08.359Z,7.17
2018-09-28T15:02:44.670Z,5.07
2018-09-28T15:05:20.845Z,8.67
2018-09-28T15:07:56.717Z,4.63
2018-09-28T15:10:32.624Z,2.83
2018-09-28T15:13:08.786Z,3.20
2018-09-28T15:15:44.633Z,5.97
2018-09-28T15:18:20.473Z,4.53
2018-09-28T15:20:56.690Z,8.17
2018-09-28T15:23:32.617Z,5.50
2018-09-28T15:26:08.473Z,4.43
2018-09-28T15:28:44.244Z,4.47
2018-09-28T15:31:20.507Z,4.63
2018-09-28T15:33:56.412Z,4.70
2018-09-28T15:36:32.441Z,12.83
2018-09-28T15:39:10.844Z,23.60
2018-09-28T15:41:46.791Z,11.67
2018-09-28T15:44:22.625Z,18.33
2018-09-28T15:46:58.425Z,8.00
2018-09-28T15:49:34.216Z,7.23
2018-09-28T15:52:10.236Z,88.73
2018-09-28T15:54:46.114Z,113.07
2018-09-28T15:57:22.041Z,42.33
2018-09-28T15:59:57.861Z,27.70
2018-09-28T16:02:34.041Z,32.50
2018-09-28T16:05:09.973Z,19.60
2018-09-28T16:07:45.884Z,18.20
2018-09-28T16:10:21.649Z,17.30
2018-09-28T16:12:57.506Z,19.07
2018-09-28T16:15:33.876Z,15.43
2018-09-28T16:18:09.801Z,25.20
2018-09-28T16:20:45.756Z,30.87
2018-09-28T16:23:21.738Z,15.90
2018-09-28T16:25:57.516Z,25.07
2018-09-28T16:28:33.389Z,57.33
2018-09-28T16:31:09.229Z,75.43
2018-09-28T16:33:45.083Z,75.37
2018-09-28T16:36:20.851Z,49.90
2018-09-28T16:38:56.651Z,39.87
2018-09-28T16:41:32.607Z,41.03
2018-09-28T16:44:08.708Z,54.10
2018-09-28T16:46:44.567Z,49.37
2018-09-28T16:49:20.406Z,50.90
2018-09-28T16:51:56.205Z,46.77
2018-09-28T16:54:32.168Z,18.83
2018-09-28T16:57:07.882Z,25.53
2018-09-28T16:59:43.717Z,31.13
2018-09-28T17:02:19.518Z,29.47
2018-09-28T17:04:55.408Z,30.27
2018-09-28T17:07:33.989Z,26.83
2018-09-28T17:10:10.348Z,104.67
2018-09-28T17:12:46.114Z,22.77
2018-09-28T17:15:22.076Z,29.37
2018-09-28T17:17:57.946Z,33.77
2018-09-28T17:20:33.802Z,72.87
2018-09-28T17:23:09.614Z,59.33
2018-09-28T17:25:45.546Z,56.80
2018-09-28T17:28:21.520Z,41.00
2018-09-28T17:30:57.701Z,34.23
2018-09-28T17:33:33.508Z,37.63
2018-09-28T17:36:09.594Z,30.80
2018-09-28T17:38:45.377Z,22.60
2018-09-28T17:41:21.329Z,24.00
2018-09-28T17:43:57.476Z,14.03
2018-09-28T17:46:33.576Z,15.30
2018-09-28T17:49:09.470Z,7.53
2018-09-28T17:51:45.321Z,10.37
2018-09-28T17:54:21.087Z,7.23
2018-09-28T17:56:57.088Z,31.03
2018-09-28T17:59:33.104Z,42.17
2018-09-28T18:02:09.060Z,29.53
2018-09-28T18:04:44.841Z,57.43
2018-09-28T18:07:20.706Z,56.60
2018-09-28T18:09:56.500Z,54.60
2018-09-28T18:12:32.445Z,29.70
2018-09-28T18:15:08.402Z,44.23
2018-09-28T18:17:44.288Z,30.53
2018-09-28T18:20:23.113Z,21.97
2018-09-28T18:22:59.233Z,28.50
2018-09-28T18:25:35.223Z,28.67
2018-09-28T18:28:11.274Z,12.30
2018-09-28T18:30:47.388Z,17.57
2018-09-28T18:33:23.242Z,13.47
2018-09-28T18:35:59.413Z,16.53
2018-09-28T18:38:35.300Z,6.23
2018-09-28T18:41:11.077Z,6.83
2018-09-28T18:43:47.018Z,11.63
2018-09-28T18:46:22.974Z,7.90
2018-09-28T18:48:58.920Z,6.13
2018-09-28T18:51:34.781Z,6.70
2018-09-28T18:54:10.647Z,15.60
2018-09-28T18:56:47.471Z,30.23
2018-09-28T18:59:28.860Z,14.73
2018-09-28T19:02:05.154Z,24.27
2018-09-28T19:04:41.136Z,23.70
2018-09-28T19:07:17.106Z,20.67
2018-09-28T19:09:52.955Z,14.17
2018-09-28T19:12:28.790Z,12.00
2018-09-28T19:15:05.139Z,16.43
2018-09-28T19:17:35.418Z,12.50
2018-09-28T19:20:06.190Z,11.27
2018-09-28T19:22:36.456Z,9.37
2018-09-28T19:25:06.750Z,15.70
2018-09-28T19:27:37.058Z,20.30
2018-09-28T19:30:08.331Z,19.90
2018-09-28T19:32:39.291Z,16.00
2018-09-28T19:35:09.612Z,28.17
2018-09-28T19:37:39.926Z,26.60
2018-09-28T19:40:10.580Z,18.37
2018-09-28T19:42:40.850Z,12.33
2018-09-28T19:45:11.113Z,13.20
2018-09-28T19:47:41.455Z,9.30
2018-09-28T19:50:11.811Z,9.30
2018-09-28T19:52:42.070Z,15.43
2018-09-28T19:55:12.389Z,13.70
2018-09-28T19:57:42.700Z,19.90
2018-09-28T20:00:13.409Z,24.13
2018-09-28T20:02:43.695Z,23.50
2018-09-28T20:05:13.999Z,31.77
2018-09-28T20:07:44.373Z,25.90
2018-09-28T20:10:14.689Z,25.20
2018-09-28T20:12:45.008Z,18.00
2018-09-28T20:15:15.339Z,12.87
2018-09-28T20:17:45.606Z,16.53
2018-09-28T20:20:16.005Z,10.57
2018-09-28T20:22:46.422Z,11.03
2018-09-28T20:25:16.714Z,12.13
2018-09-28T20:27:46.992Z,15.07
2018-09-28T20:30:17.293Z,36.17
2018-09-28T20:32:47.620Z,41.93
2018-09-28T20:35:18.144Z,58.83
2018-09-28T20:37:48.415Z,66.10
2018-09-28T20:40:18.713Z,73.30
2018-09-28T20:42:49.085Z,55.20
2018-09-28T20:45:19.405Z,43.03
2018-09-28T20:47:49.689Z,26.03
2018-09-28T20:50:20.104Z,26.50
2018-09-28T20:52:50.449Z,27.07
2018-09-28T20:55:20.823Z,17.20
2018-09-28T20:57:51.563Z,15.27
2018-09-28T21:00:21.849Z,15.60
2018-09-28T21:02:52.165Z,18.80
2018-09-28T21:05:22.450Z,17.50
2018-09-28T21:07:53.293Z,13.03
2018-09-28T21:10:23.601Z,19.03
2018-09-28T21:12:53.909Z,20.77
2018-09-28T21:15:24.271Z,18.57
2018-09-28T21:17:54.569Z,76.03
2018-09-28T21:20:24.897Z,33.50
2018-09-28T21:22:55.226Z,22.63
2018-09-28T21:25:25.517Z,16.13
2018-09-28T21:27:55.833Z,14.90
2018-09-28T21:30:26.229Z,9.47
2018-09-28T21:32:56.518Z,9.17
2018-09-28T21:35:26.917Z,8.63
2018-09-28T21:37:57.439Z,9.23
2018-09-28T21:40:27.764Z,7.57
2018-09-28T21:42:58.168Z,7.67
2018-09-28T21:45:28.460Z,7.67
2018-09-28T21:47:58.795Z,7.00
2018-09-28T21:50:29.348Z,8.67
2018-09-28T21:52:59.753Z,11.93
2018-09-28T21:55:30.159Z,17.00
2018-09-28T21:58:00.459Z,14.13
2018-09-28T22:00:30.928Z,8.83
2018-09-28T22:03:01.251Z,10.60
2018-09-28T22:05:31.688Z,7.97
2018-09-28T22:08:02.050Z,5.40
2018-09-28T22:10:32.940Z,6.60
2018-09-28T22:13:03.249Z,6.40
2018-09-28T22:15:33.595Z,8.87
2018-09-28T22:18:04.433Z,9.93
2018-09-28T22:20:39.224Z,14.17
2018-09-28T22:23:09.788Z,14.57
2018-09-28T22:25:40.130Z,12.63
2018-09-28T22:28:13.980Z,14.00
2018-09-28T22:30:44.299Z,15.90
2018-09-28T22:33:14.610Z,12.37
2018-09-28T22:35:44.925Z,23.30
2018-09-28T22:38:15.309Z,14.10
2018-09-28T22:40:45.668Z,14.50
2018-09-28T22:43:15.928Z,13.13
2018-09-28T22:45:46.332Z,12.60
2018-09-28T22:48:16.644Z,12.60
2018-09-28T22:50:47.309Z,17.73
2018-09-28T22:53:17.601Z,11.80
2018-09-28T22:55:47.920Z,15.93
2018-09-28T22:58:18.233Z,12.73
2018-09-28T23:00:48.541Z,16.87
2018-09-28T23:03:18.854Z,11.67
2018-09-28T23:05:49.237Z,16.43
2018-09-28T23:08:19.496Z,16.23
2018-09-28T23:10:49.812Z,13.47
2018-09-28T23:13:20.143Z,12.03
2018-09-28T23:15:50.399Z,12.70
2018-09-28T23:18:20.669Z,11.50
2018-09-28T23:20:51.067Z,15.37
2018-09-28T23:23:21.792Z,12.20
2018-09-28T23:25:52.138Z,14.47
2018-09-28T23:28:22.408Z,12.90
2018-09-28T23:30:52.701Z,20.90
2018-09-28T23:33:23.015Z,14.63
2018-09-28T23:35:53.525Z,13.73
2018-09-28T23:38:23.801Z,12.37
2018-09-28T23:40:54.216Z,16.03
2018-09-28T23:43:24.514Z,13.67
2018-09-28T23:45:54.793Z,15.37
2018-09-28T23:48:25.144Z,14.33
2018-09-28T23:50:55.525Z,13.70
2018-09-28T23:53:25.798Z,10.33
2018-09-28T23:55:56.262Z,12.13
2018-09-28T23:58:26.530Z,12.60
